sensor_id;sensor_type;location;lat;lon;timestamp;temperature;humidity
32217;DHT22;67098;51.140;4.088;2023-04-24T00:00:04;11.90;97.20
32217;DHT22;67098;51.140;4.088;2023-04-24T00:02:35;11.90;97.00
32217;DHT22;67098;51.140;4.088;2023-04-24T00:05:07;11.80;97.40
32217;DHT22;67098;51.140;4.088;2023-04-24T00:07:33;11.90;97.10
32217;DHT22;67098;51.140;4.088;2023-04-24T00:09:59;11.90;97.10
32217;DHT22;67098;51.140;4.088;2023-04-24T00:12:26;12.00;96.80
32217;DHT22;67098;51.140;4.088;2023-04-24T00:14:52;12.00;96.90
32217;DHT22;67098;51.140;4.088;2023-04-24T00:17:18;12.00;96.70
32217;DHT22;67098;51.140;4.088;2023-04-24T00:19:47;12.00;96.80
32217;DHT22;67098;51.140;4.088;2023-04-24T00:22:13;11.90;97.00
32217;DHT22;67098;51.140;4.088;2023-04-24T00:24:40;12.00;96.80
32217;DHT22;67098;51.140;4.088;2023-04-24T00:27:06;12.00;96.90
32217;DHT22;67098;51.140;4.088;2023-04-24T00:29:32;12.00;96.70
32217;DHT22;67098;51.140;4.088;2023-04-24T00:31:57;12.00;96.80
32217;DHT22;67098;51.140;4.088;2023-04-24T00:34:23;11.90;97.00
32217;DHT22;67098;51.140;4.088;2023-04-24T00:36:49;11.80;97.20
32217;DHT22;67098;51.140;4.088;2023-04-24T00:39:20;11.70;97.30
32217;DHT22;67098;51.140;4.088;2023-04-24T00:41:46;11.70;97.30
32217;DHT22;67098;51.140;4.088;2023-04-24T00:44:13;11.80;96.80
32217;DHT22;67098;51.140;4.088;2023-04-24T00:46:39;11.70;97.00
32217;DHT22;67098;51.140;4.088;2023-04-24T00:49:05;11.70;97.10
32217;DHT22;67098;51.140;4.088;2023-04-24T00:51:31;11.70;96.90
32217;DHT22;67098;51.140;4.088;2023-04-24T00:53:59;11.80;96.80
32217;DHT22;67098;51.140;4.088;2023-04-24T00:56:25;11.80;96.80
32217;DHT22;67098;51.140;4.088;2023-04-24T00:58:51;11.80;97.00
32217;DHT22;67098;51.140;4.088;2023-04-24T01:01:19;11.80;97.00
32217;DHT22;67098;51.140;4.088;2023-04-24T01:03:46;11.80;97.10
32217;DHT22;67098;51.140;4.088;2023-04-24T01:06:13;11.90;96.80
32217;DHT22;67098;51.140;4.088;2023-04-24T01:08:39;12.00;96.50
32217;DHT22;67098;51.140;4.088;2023-04-24T01:11:06;11.90;96.60
32217;DHT22;67098;51.140;4.088;2023-04-24T01:13:32;11.90;96.60
32217;DHT22;67098;51.140;4.088;2023-04-24T01:15:58;11.90;96.50
32217;DHT22;67098;51.140;4.088;2023-04-24T01:18:24;11.80;96.70
32217;DHT22;67098;51.140;4.088;2023-04-24T01:20:51;11.70;96.80
32217;DHT22;67098;51.140;4.088;2023-04-24T01:23:18;11.80;96.80
32217;DHT22;67098;51.140;4.088;2023-04-24T01:25:44;11.80;96.70
32217;DHT22;67098;51.140;4.088;2023-04-24T01:28:10;11.80;96.60
32217;DHT22;67098;51.140;4.088;2023-04-24T01:30:36;11.60;96.80
32217;DHT22;67098;51.140;4.088;2023-04-24T01:33:02;11.70;96.50
32217;DHT22;67098;51.140;4.088;2023-04-24T01:35:28;11.70;96.70
32217;DHT22;67098;51.140;4.088;2023-04-24T01:37:54;11.80;96.40
32217;DHT22;67098;51.140;4.088;2023-04-24T01:40:20;11.90;96.30
32217;DHT22;67098;51.140;4.088;2023-04-24T01:42:46;11.90;96.30
32217;DHT22;67098;51.140;4.088;2023-04-24T01:45:12;11.90;96.10
32217;DHT22;67098;51.140;4.088;2023-04-24T01:47:40;11.90;96.10
32217;DHT22;67098;51.140;4.088;2023-04-24T01:50:07;11.90;96.10
32217;DHT22;67098;51.140;4.088;2023-04-24T01:52:33;11.80;96.40
32217;DHT22;67098;51.140;4.088;2023-04-24T01:55:00;11.90;96.30
32217;DHT22;67098;51.140;4.088;2023-04-24T01:57:26;11.90;96.40
32217;DHT22;67098;51.140;4.088;2023-04-24T01:59:52;11.90;96.20
32217;DHT22;67098;51.140;4.088;2023-04-24T02:02:19;11.90;96.30
32217;DHT22;67098;51.140;4.088;2023-04-24T02:04:46;11.80;96.70
32217;DHT22;67098;51.140;4.088;2023-04-24T02:07:12;11.70;97.00
32217;DHT22;67098;51.140;4.088;2023-04-24T02:09:37;11.60;97.30
32217;DHT22;67098;51.140;4.088;2023-04-24T02:12:03;11.60;97.30
32217;DHT22;67098;51.140;4.088;2023-04-24T02:14:29;11.50;97.60
32217;DHT22;67098;51.140;4.088;2023-04-24T02:16:54;11.50;97.80
32217;DHT22;67098;51.140;4.088;2023-04-24T02:19:20;11.40;97.90
32217;DHT22;67098;51.140;4.088;2023-04-24T02:21:46;11.40;98.00
32217;DHT22;67098;51.140;4.088;2023-04-24T02:24:11;11.40;98.10
32217;DHT22;67098;51.140;4.088;2023-04-24T02:26:37;11.30;98.20
32217;DHT22;67098;51.140;4.088;2023-04-24T02:29:02;11.20;98.40
32217;DHT22;67098;51.140;4.088;2023-04-24T02:31:28;11.30;98.60
32217;DHT22;67098;51.140;4.088;2023-04-24T02:33:54;11.30;98.50
32217;DHT22;67098;51.140;4.088;2023-04-24T02:36:19;11.30;98.60
32217;DHT22;67098;51.140;4.088;2023-04-24T02:38:45;11.20;98.90
32217;DHT22;67098;51.140;4.088;2023-04-24T02:41:11;11.30;98.60
32217;DHT22;67098;51.140;4.088;2023-04-24T02:43:36;11.20;98.80
32217;DHT22;67098;51.140;4.088;2023-04-24T02:46:02;11.30;98.60
32217;DHT22;67098;51.140;4.088;2023-04-24T02:48:28;11.30;98.60
32217;DHT22;67098;51.140;4.088;2023-04-24T02:50:54;11.30;98.50
32217;DHT22;67098;51.140;4.088;2023-04-24T02:53:19;11.30;98.80
32217;DHT22;67098;51.140;4.088;2023-04-24T02:55:45;11.30;98.80
32217;DHT22;67098;51.140;4.088;2023-04-24T02:58:11;11.40;98.70
32217;DHT22;67098;51.140;4.088;2023-04-24T03:00:38;11.50;98.40
32217;DHT22;67098;51.140;4.088;2023-04-24T03:03:05;11.40;98.70
32217;DHT22;67098;51.140;4.088;2023-04-24T03:05:31;11.40;98.90
32217;DHT22;67098;51.140;4.088;2023-04-24T03:07:56;11.40;98.90
32217;DHT22;67098;51.140;4.088;2023-04-24T03:10:22;11.40;98.70
32217;DHT22;67098;51.140;4.088;2023-04-24T03:12:48;11.40;98.80
32217;DHT22;67098;51.140;4.088;2023-04-24T03:15:15;11.40;98.80
32217;DHT22;67098;51.140;4.088;2023-04-24T03:17:40;11.50;98.60
32217;DHT22;67098;51.140;4.088;2023-04-24T03:20:07;11.20;99.20
32217;DHT22;67098;51.140;4.088;2023-04-24T03:22:35;11.00;99.50
32217;DHT22;67098;51.140;4.088;2023-04-24T03:25:01;11.10;99.60
32217;DHT22;67098;51.140;4.088;2023-04-24T03:27:27;11.00;99.60
32217;DHT22;67098;51.140;4.088;2023-04-24T03:29:53;11.10;99.40
32217;DHT22;67098;51.140;4.088;2023-04-24T03:32:23;11.10;99.00
32217;DHT22;67098;51.140;4.088;2023-04-24T03:34:49;11.10;98.90
32217;DHT22;67098;51.140;4.088;2023-04-24T03:37:18;11.00;99.10
32217;DHT22;67098;51.140;4.088;2023-04-24T03:39:44;11.00;98.80
32217;DHT22;67098;51.140;4.088;2023-04-24T03:42:10;10.90;99.40
32217;DHT22;67098;51.140;4.088;2023-04-24T03:44:36;11.00;99.40
32217;DHT22;67098;51.140;4.088;2023-04-24T03:47:01;11.00;99.20
32217;DHT22;67098;51.140;4.088;2023-04-24T03:49:27;11.00;99.00
32217;DHT22;67098;51.140;4.088;2023-04-24T03:51:53;11.00;99.30
32217;DHT22;67098;51.140;4.088;2023-04-24T03:54:19;11.00;99.10
32217;DHT22;67098;51.140;4.088;2023-04-24T03:56:45;11.10;99.00
32217;DHT22;67098;51.140;4.088;2023-04-24T03:59:11;11.10;98.90
32217;DHT22;67098;51.140;4.088;2023-04-24T04:01:37;10.90;99.40
32217;DHT22;67098;51.140;4.088;2023-04-24T04:04:04;11.00;99.20
32217;DHT22;67098;51.140;4.088;2023-04-24T04:06:29;10.90;99.30
32217;DHT22;67098;51.140;4.088;2023-04-24T04:08:56;10.90;99.50
32217;DHT22;67098;51.140;4.088;2023-04-24T04:11:22;10.90;99.30
32217;DHT22;67098;51.140;4.088;2023-04-24T04:13:48;10.90;99.60
32217;DHT22;67098;51.140;4.088;2023-04-24T04:16:14;10.80;99.60
32217;DHT22;67098;51.140;4.088;2023-04-24T04:18:42;10.90;99.10
32217;DHT22;67098;51.140;4.088;2023-04-24T04:21:08;10.90;99.10
32217;DHT22;67098;51.140;4.088;2023-04-24T04:23:33;11.00;98.90
32217;DHT22;67098;51.140;4.088;2023-04-24T04:25:59;10.80;99.10
32217;DHT22;67098;51.140;4.088;2023-04-24T04:28:25;10.70;99.40
32217;DHT22;67098;51.140;4.088;2023-04-24T04:30:51;10.70;99.40
32217;DHT22;67098;51.140;4.088;2023-04-24T04:33:21;10.90;99.10
32217;DHT22;67098;51.140;4.088;2023-04-24T04:35:47;10.90;99.00
32217;DHT22;67098;51.140;4.088;2023-04-24T04:38:18;10.80;99.30
32217;DHT22;67098;51.140;4.088;2023-04-24T04:40:44;10.70;99.50
32217;DHT22;67098;51.140;4.088;2023-04-24T04:43:11;10.80;99.10
32217;DHT22;67098;51.140;4.088;2023-04-24T04:45:37;10.80;99.20
32217;DHT22;67098;51.140;4.088;2023-04-24T04:48:04;10.70;99.20
32217;DHT22;67098;51.140;4.088;2023-04-24T04:50:33;10.60;99.20
32217;DHT22;67098;51.140;4.088;2023-04-24T04:52:58;10.60;98.80
32217;DHT22;67098;51.140;4.088;2023-04-24T04:55:24;10.50;99.00
32217;DHT22;67098;51.140;4.088;2023-04-24T04:57:50;10.50;99.20
32217;DHT22;67098;51.140;4.088;2023-04-24T05:00:16;10.50;99.10
32217;DHT22;67098;51.140;4.088;2023-04-24T05:02:42;10.50;99.40
32217;DHT22;67098;51.140;4.088;2023-04-24T05:05:08;10.60;99.10
32217;DHT22;67098;51.140;4.088;2023-04-24T05:07:34;10.70;98.80
32217;DHT22;67098;51.140;4.088;2023-04-24T05:10:00;10.70;98.80
32217;DHT22;67098;51.140;4.088;2023-04-24T05:12:25;10.90;98.60
32217;DHT22;67098;51.140;4.088;2023-04-24T05:14:52;11.00;98.20
32217;DHT22;67098;51.140;4.088;2023-04-24T05:17:18;11.10;98.00
32217;DHT22;67098;51.140;4.088;2023-04-24T05:19:44;11.00;98.00
32217;DHT22;67098;51.140;4.088;2023-04-24T05:22:10;11.00;98.20
32217;DHT22;67098;51.140;4.088;2023-04-24T05:24:37;10.90;98.50
32217;DHT22;67098;51.140;4.088;2023-04-24T05:27:03;10.80;98.70
32217;DHT22;67098;51.140;4.088;2023-04-24T05:29:30;10.70;98.90
32217;DHT22;67098;51.140;4.088;2023-04-24T05:32:00;10.80;98.70
32217;DHT22;67098;51.140;4.088;2023-04-24T05:34:26;10.80;98.70
32217;DHT22;67098;51.140;4.088;2023-04-24T05:36:52;10.90;98.60
32217;DHT22;67098;51.140;4.088;2023-04-24T05:39:17;10.80;98.70
32217;DHT22;67098;51.140;4.088;2023-04-24T05:41:43;10.80;98.70
32217;DHT22;67098;51.140;4.088;2023-04-24T05:44:09;10.80;98.70
32217;DHT22;67098;51.140;4.088;2023-04-24T05:46:35;10.80;98.80
32217;DHT22;67098;51.140;4.088;2023-04-24T05:49:01;10.70;99.20
32217;DHT22;67098;51.140;4.088;2023-04-24T05:51:27;10.70;99.40
32217;DHT22;67098;51.140;4.088;2023-04-24T05:53:53;10.80;99.20
32217;DHT22;67098;51.140;4.088;2023-04-24T05:56:18;11.00;98.80
32217;DHT22;67098;51.140;4.088;2023-04-24T05:58:45;10.90;99.00
32217;DHT22;67098;51.140;4.088;2023-04-24T06:01:11;10.90;99.00
32217;DHT22;67098;51.140;4.088;2023-04-24T06:03:38;11.00;99.00
32217;DHT22;67098;51.140;4.088;2023-04-24T06:06:05;11.00;99.00
32217;DHT22;67098;51.140;4.088;2023-04-24T06:08:31;11.10;98.80
32217;DHT22;67098;51.140;4.088;2023-04-24T06:10:58;11.10;98.70
32217;DHT22;67098;51.140;4.088;2023-04-24T06:13:23;11.10;98.70
32217;DHT22;67098;51.140;4.088;2023-04-24T06:15:49;11.10;98.60
32217;DHT22;67098;51.140;4.088;2023-04-24T06:18:15;11.10;98.90
32217;DHT22;67098;51.140;4.088;2023-04-24T06:20:41;11.00;98.70
32217;DHT22;67098;51.140;4.088;2023-04-24T06:23:06;11.00;99.00
32217;DHT22;67098;51.140;4.088;2023-04-24T06:25:32;10.90;99.10
32217;DHT22;67098;51.140;4.088;2023-04-24T06:27:58;10.80;99.20
32217;DHT22;67098;51.140;4.088;2023-04-24T06:30:24;10.70;99.60
32217;DHT22;67098;51.140;4.088;2023-04-24T06:32:50;10.70;99.50
32217;DHT22;67098;51.140;4.088;2023-04-24T06:35:16;10.60;99.50
32217;DHT22;67098;51.140;4.088;2023-04-24T06:37:43;10.70;99.40
32217;DHT22;67098;51.140;4.088;2023-04-24T06:40:09;10.80;99.30
32217;DHT22;67098;51.140;4.088;2023-04-24T06:42:35;10.70;99.30
32217;DHT22;67098;51.140;4.088;2023-04-24T06:45:01;10.60;99.90
32217;DHT22;67098;51.140;4.088;2023-04-24T06:47:27;10.70;99.60
32217;DHT22;67098;51.140;4.088;2023-04-24T06:49:53;10.90;99.40
32217;DHT22;67098;51.140;4.088;2023-04-24T06:52:19;10.90;99.30
32217;DHT22;67098;51.140;4.088;2023-04-24T06:54:45;10.80;99.10
32217;DHT22;67098;51.140;4.088;2023-04-24T06:57:11;10.90;99.00
32217;DHT22;67098;51.140;4.088;2023-04-24T06:59:37;10.90;99.00
32217;DHT22;67098;51.140;4.088;2023-04-24T07:02:03;10.90;98.90
32217;DHT22;67098;51.140;4.088;2023-04-24T07:04:29;10.90;98.70
32217;DHT22;67098;51.140;4.088;2023-04-24T07:06:55;11.00;98.40
32217;DHT22;67098;51.140;4.088;2023-04-24T07:09:24;11.10;98.00
32217;DHT22;67098;51.140;4.088;2023-04-24T07:11:51;11.00;98.40
32217;DHT22;67098;51.140;4.088;2023-04-24T07:14:17;11.00;98.70
32217;DHT22;67098;51.140;4.088;2023-04-24T07:16:43;11.00;98.90
32217;DHT22;67098;51.140;4.088;2023-04-24T07:19:09;11.10;98.50
32217;DHT22;67098;51.140;4.088;2023-04-24T07:21:35;11.20;98.60
32217;DHT22;67098;51.140;4.088;2023-04-24T07:24:01;11.30;98.10
32217;DHT22;67098;51.140;4.088;2023-04-24T07:26:29;11.40;98.00
32217;DHT22;67098;51.140;4.088;2023-04-24T07:28:55;11.40;98.00
32217;DHT22;67098;51.140;4.088;2023-04-24T07:31:21;11.40;98.00
32217;DHT22;67098;51.140;4.088;2023-04-24T07:33:47;11.30;98.10
32217;DHT22;67098;51.140;4.088;2023-04-24T07:36:13;11.40;98.00
32217;DHT22;67098;51.140;4.088;2023-04-24T07:38:45;11.20;98.30
32217;DHT22;67098;51.140;4.088;2023-04-24T07:41:12;11.30;98.30
32217;DHT22;67098;51.140;4.088;2023-04-24T07:43:38;11.40;98.40
32217;DHT22;67098;51.140;4.088;2023-04-24T07:46:04;11.50;98.40
32217;DHT22;67098;51.140;4.088;2023-04-24T07:48:29;11.50;97.90
32217;DHT22;67098;51.140;4.088;2023-04-24T07:50:55;11.50;97.50
32217;DHT22;67098;51.140;4.088;2023-04-24T07:53:21;11.50;97.30
32217;DHT22;67098;51.140;4.088;2023-04-24T07:55:47;11.60;97.10
32217;DHT22;67098;51.140;4.088;2023-04-24T07:58:12;11.70;97.30
32217;DHT22;67098;51.140;4.088;2023-04-24T08:00:38;12.00;97.20
32217;DHT22;67098;51.140;4.088;2023-04-24T08:03:04;12.30;96.70
32217;DHT22;67098;51.140;4.088;2023-04-24T08:05:30;12.20;96.50
32217;DHT22;67098;51.140;4.088;2023-04-24T08:07:56;12.30;96.70
32217;DHT22;67098;51.140;4.088;2023-04-24T08:10:22;12.40;95.50
32217;DHT22;67098;51.140;4.088;2023-04-24T08:12:49;12.50;95.70
32217;DHT22;67098;51.140;4.088;2023-04-24T08:15:15;12.50;95.40
32217;DHT22;67098;51.140;4.088;2023-04-24T08:17:40;12.30;95.50
32217;DHT22;67098;51.140;4.088;2023-04-24T08:20:07;12.00;95.90
32217;DHT22;67098;51.140;4.088;2023-04-24T08:22:39;11.70;96.40
32217;DHT22;67098;51.140;4.088;2023-04-24T08:25:05;11.70;96.50
32217;DHT22;67098;51.140;4.088;2023-04-24T08:27:31;11.60;96.90
32217;DHT22;67098;51.140;4.088;2023-04-24T08:29:57;11.60;97.30
32217;DHT22;67098;51.140;4.088;2023-04-24T08:32:24;11.70;97.20
32217;DHT22;67098;51.140;4.088;2023-04-24T08:34:50;12.00;96.40
32217;DHT22;67098;51.140;4.088;2023-04-24T08:37:18;11.90;96.10
32217;DHT22;67098;51.140;4.088;2023-04-24T08:39:43;11.80;96.50
32217;DHT22;67098;51.140;4.088;2023-04-24T08:42:11;11.80;96.90
32217;DHT22;67098;51.140;4.088;2023-04-24T08:44:36;11.90;96.60
32217;DHT22;67098;51.140;4.088;2023-04-24T08:47:03;12.00;96.20
32217;DHT22;67098;51.140;4.088;2023-04-24T08:49:29;12.10;96.10
32217;DHT22;67098;51.140;4.088;2023-04-24T08:51:55;12.20;96.90
32217;DHT22;67098;51.140;4.088;2023-04-24T08:54:21;12.70;95.90
32217;DHT22;67098;51.140;4.088;2023-04-24T08:56:48;13.10;94.60
32217;DHT22;67098;51.140;4.088;2023-04-24T08:59:15;13.20;93.10
32217;DHT22;67098;51.140;4.088;2023-04-24T09:01:41;13.80;92.80
32217;DHT22;67098;51.140;4.088;2023-04-24T09:04:09;14.30;90.90
32217;DHT22;67098;51.140;4.088;2023-04-24T09:06:39;14.40;89.80
32217;DHT22;67098;51.140;4.088;2023-04-24T09:09:05;14.30;88.50
32217;DHT22;67098;51.140;4.088;2023-04-24T09:11:31;13.90;89.20
32217;DHT22;67098;51.140;4.088;2023-04-24T09:13:58;13.70;88.50
32217;DHT22;67098;51.140;4.088;2023-04-24T09:16:25;13.70;89.60
32217;DHT22;67098;51.140;4.088;2023-04-24T09:18:52;14.20;88.40
32217;DHT22;67098;51.140;4.088;2023-04-24T09:21:21;14.30;87.50
32217;DHT22;67098;51.140;4.088;2023-04-24T09:23:46;14.00;87.70
32217;DHT22;67098;51.140;4.088;2023-04-24T09:26:12;13.90;87.30
32217;DHT22;67098;51.140;4.088;2023-04-24T09:28:40;13.70;87.60
32217;DHT22;67098;51.140;4.088;2023-04-24T09:31:14;13.70;87.80
32217;DHT22;67098;51.140;4.088;2023-04-24T09:34:00;13.40;86.80
32217;DHT22;67098;51.140;4.088;2023-04-24T09:36:30;13.30;88.00
32217;DHT22;67098;51.140;4.088;2023-04-24T09:38:59;13.60;87.60
32217;DHT22;67098;51.140;4.088;2023-04-24T09:41:26;13.60;87.60
32217;DHT22;67098;51.140;4.088;2023-04-24T09:43:56;13.50;87.50
32217;DHT22;67098;51.140;4.088;2023-04-24T09:46:29;13.30;87.10
32217;DHT22;67098;51.140;4.088;2023-04-24T09:48:55;12.80;88.50
32217;DHT22;67098;51.140;4.088;2023-04-24T09:51:34;12.80;90.20
32217;DHT22;67098;51.140;4.088;2023-04-24T09:54:05;13.10;90.10
32217;DHT22;67098;51.140;4.088;2023-04-24T09:56:36;13.10;88.20
32217;DHT22;67098;51.140;4.088;2023-04-24T09:59:06;13.10;90.00
32217;DHT22;67098;51.140;4.088;2023-04-24T10:01:32;13.20;89.00
32217;DHT22;67098;51.140;4.088;2023-04-24T10:03:58;13.20;87.50
32217;DHT22;67098;51.140;4.088;2023-04-24T10:06:34;13.20;87.70
32217;DHT22;67098;51.140;4.088;2023-04-24T10:09:01;13.30;88.40
32217;DHT22;67098;51.140;4.088;2023-04-24T10:11:28;13.30;87.40
32217;DHT22;67098;51.140;4.088;2023-04-24T10:13:54;13.30;87.30
32217;DHT22;67098;51.140;4.088;2023-04-24T10:16:21;13.60;87.30
32217;DHT22;67098;51.140;4.088;2023-04-24T10:18:48;13.90;86.20
32217;DHT22;67098;51.140;4.088;2023-04-24T10:21:17;14.10;85.30
32217;DHT22;67098;51.140;4.088;2023-04-24T10:23:43;14.20;84.20
32217;DHT22;67098;51.140;4.088;2023-04-24T10:26:09;14.20;84.30
32217;DHT22;67098;51.140;4.088;2023-04-24T10:28:36;14.40;83.30
32217;DHT22;67098;51.140;4.088;2023-04-24T10:31:02;14.30;84.30
32217;DHT22;67098;51.140;4.088;2023-04-24T10:33:29;14.40;84.70
32217;DHT22;67098;51.140;4.088;2023-04-24T10:35:56;14.60;84.90
32217;DHT22;67098;51.140;4.088;2023-04-24T10:38:25;14.70;83.40
32217;DHT22;67098;51.140;4.088;2023-04-24T10:40:58;14.60;83.80
32217;DHT22;67098;51.140;4.088;2023-04-24T10:43:33;14.20;83.40
32217;DHT22;67098;51.140;4.088;2023-04-24T10:46:03;14.30;84.30
32217;DHT22;67098;51.140;4.088;2023-04-24T10:48:32;14.30;83.90
32217;DHT22;67098;51.140;4.088;2023-04-24T10:50:58;14.20;83.30
32217;DHT22;67098;51.140;4.088;2023-04-24T10:53:28;14.90;82.20
32217;DHT22;67098;51.140;4.088;2023-04-24T10:58:55;15.50;81.00
32217;DHT22;67098;51.140;4.088;2023-04-24T11:01:33;16.10;78.00
32217;DHT22;67098;51.140;4.088;2023-04-24T11:04:03;16.20;77.40
32217;DHT22;67098;51.140;4.088;2023-04-24T11:06:36;16.80;77.70
32217;DHT22;67098;51.140;4.088;2023-04-24T11:09:09;17.50;74.40
32217;DHT22;67098;51.140;4.088;2023-04-24T11:11:38;17.20;73.90
32217;DHT22;67098;51.140;4.088;2023-04-24T11:14:07;16.60;75.00
32217;DHT22;67098;51.140;4.088;2023-04-24T11:21:58;15.80;72.80
32217;DHT22;67098;51.140;4.088;2023-04-24T11:34:53;18.10;68.90
32217;DHT22;67098;51.140;4.088;2023-04-24T11:37:19;18.90;69.00
32217;DHT22;67098;51.140;4.088;2023-04-24T11:39:44;20.10;67.20
32217;DHT22;67098;51.140;4.088;2023-04-24T11:42:10;20.70;63.90
32217;DHT22;67098;51.140;4.088;2023-04-24T11:44:39;20.90;63.50
32217;DHT22;67098;51.140;4.088;2023-04-24T11:47:06;21.20;60.50
32217;DHT22;67098;51.140;4.088;2023-04-24T11:49:33;20.20;61.20
32217;DHT22;67098;51.140;4.088;2023-04-24T11:52:02;19.40;63.30
32217;DHT22;67098;51.140;4.088;2023-04-24T11:54:28;19.30;65.00
32217;DHT22;67098;51.140;4.088;2023-04-24T11:56:54;19.30;63.20
32217;DHT22;67098;51.140;4.088;2023-04-24T11:59:19;19.50;62.60
32217;DHT22;67098;51.140;4.088;2023-04-24T12:01:46;20.00;63.30
32217;DHT22;67098;51.140;4.088;2023-04-24T12:04:13;20.70;61.70
32217;DHT22;67098;51.140;4.088;2023-04-24T12:06:38;20.10;59.00
32217;DHT22;67098;51.140;4.088;2023-04-24T12:09:04;19.10;60.40
32217;DHT22;67098;51.140;4.088;2023-04-24T12:11:30;18.20;62.50
32217;DHT22;67098;51.140;4.088;2023-04-24T12:13:56;17.30;63.90
32217;DHT22;67098;51.140;4.088;2023-04-24T12:16:23;16.90;65.00
32217;DHT22;67098;51.140;4.088;2023-04-24T12:18:51;16.40;64.80
32217;DHT22;67098;51.140;4.088;2023-04-24T12:21:23;16.60;65.70
32217;DHT22;67098;51.140;4.088;2023-04-24T12:23:54;16.40;64.20
32217;DHT22;67098;51.140;4.088;2023-04-24T12:26:20;16.70;64.50
32217;DHT22;67098;51.140;4.088;2023-04-24T12:28:48;16.80;64.10
32217;DHT22;67098;51.140;4.088;2023-04-24T12:31:15;17.50;63.20
32217;DHT22;67098;51.140;4.088;2023-04-24T12:33:41;17.70;64.40
32217;DHT22;67098;51.140;4.088;2023-04-24T12:36:10;18.90;63.20
32217;DHT22;67098;51.140;4.088;2023-04-24T12:38:39;19.40;62.30
32217;DHT22;67098;51.140;4.088;2023-04-24T12:41:11;19.20;62.30
32217;DHT22;67098;51.140;4.088;2023-04-24T12:43:37;19.10;62.70
32217;DHT22;67098;51.140;4.088;2023-04-24T12:46:03;18.30;62.50
32217;DHT22;67098;51.140;4.088;2023-04-24T12:48:29;17.60;64.50
32217;DHT22;67098;51.140;4.088;2023-04-24T12:50:59;17.20;67.90
32217;DHT22;67098;51.140;4.088;2023-04-24T12:53:27;16.80;66.80
32217;DHT22;67098;51.140;4.088;2023-04-24T12:55:54;16.70;67.40
32217;DHT22;67098;51.140;4.088;2023-04-24T12:58:20;16.80;67.50
32217;DHT22;67098;51.140;4.088;2023-04-24T13:00:46;16.80;66.50
32217;DHT22;67098;51.140;4.088;2023-04-24T13:03:12;17.30;66.50
32217;DHT22;67098;51.140;4.088;2023-04-24T13:05:38;17.40;64.50
32217;DHT22;67098;51.140;4.088;2023-04-24T13:08:04;18.00;63.80
32217;DHT22;67098;51.140;4.088;2023-04-24T13:10:30;18.70;62.30
32217;DHT22;67098;51.140;4.088;2023-04-24T13:12:56;18.80;60.90
32217;DHT22;67098;51.140;4.088;2023-04-24T13:15:21;19.50;59.30
32217;DHT22;67098;51.140;4.088;2023-04-24T13:17:47;19.90;57.80
32217;DHT22;67098;51.140;4.088;2023-04-24T13:20:13;19.60;57.00
32217;DHT22;67098;51.140;4.088;2023-04-24T13:22:38;20.00;58.10
32217;DHT22;67098;51.140;4.088;2023-04-24T13:25:05;20.60;56.90
32217;DHT22;67098;51.140;4.088;2023-04-24T13:27:31;21.20;54.60
32217;DHT22;67098;51.140;4.088;2023-04-24T13:29:57;21.70;54.00
32217;DHT22;67098;51.140;4.088;2023-04-24T13:32:23;21.70;54.40
32217;DHT22;67098;51.140;4.088;2023-04-24T13:34:48;22.10;53.30
32217;DHT22;67098;51.140;4.088;2023-04-24T13:37:14;21.90;54.00
32217;DHT22;67098;51.140;4.088;2023-04-24T13:39:40;22.60;53.30
32217;DHT22;67098;51.140;4.088;2023-04-24T13:42:06;23.10;52.90
32217;DHT22;67098;51.140;4.088;2023-04-24T13:44:32;22.50;51.90
32217;DHT22;67098;51.140;4.088;2023-04-24T13:46:58;22.00;52.70
32217;DHT22;67098;51.140;4.088;2023-04-24T13:49:25;21.50;52.70
32217;DHT22;67098;51.140;4.088;2023-04-24T13:51:52;21.80;53.10
32217;DHT22;67098;51.140;4.088;2023-04-24T13:54:18;22.30;53.50
32217;DHT22;67098;51.140;4.088;2023-04-24T13:56:44;22.00;53.50
32217;DHT22;67098;51.140;4.088;2023-04-24T13:59:14;21.90;53.70
32217;DHT22;67098;51.140;4.088;2023-04-24T14:01:40;22.00;53.90
32217;DHT22;67098;51.140;4.088;2023-04-24T14:04:06;22.40;53.60
32217;DHT22;67098;51.140;4.088;2023-04-24T14:06:31;22.90;52.70
32217;DHT22;67098;51.140;4.088;2023-04-24T14:08:57;22.50;52.20
32217;DHT22;67098;51.140;4.088;2023-04-24T14:11:23;22.00;53.40
32217;DHT22;67098;51.140;4.088;2023-04-24T14:13:49;21.80;53.00
32217;DHT22;67098;51.140;4.088;2023-04-24T14:16:15;21.90;53.70
32217;DHT22;67098;51.140;4.088;2023-04-24T14:18:40;22.50;52.60
32217;DHT22;67098;51.140;4.088;2023-04-24T14:21:07;22.80;52.80
32217;DHT22;67098;51.140;4.088;2023-04-24T14:23:33;22.80;52.70
32217;DHT22;67098;51.140;4.088;2023-04-24T14:25:59;22.60;52.80
32217;DHT22;67098;51.140;4.088;2023-04-24T14:28:25;22.50;50.20
32217;DHT22;67098;51.140;4.088;2023-04-24T14:30:51;22.00;51.60
32217;DHT22;67098;51.140;4.088;2023-04-24T14:33:17;21.70;52.10
32217;DHT22;67098;51.140;4.088;2023-04-24T14:35:43;22.10;51.30
32217;DHT22;67098;51.140;4.088;2023-04-24T14:38:09;22.30;50.90
32217;DHT22;67098;51.140;4.088;2023-04-24T14:40:35;22.60;50.90
32217;DHT22;67098;51.140;4.088;2023-04-24T14:43:01;23.00;49.80
32217;DHT22;67098;51.140;4.088;2023-04-24T14:45:27;23.60;48.20
32217;DHT22;67098;51.140;4.088;2023-04-24T14:47:53;23.60;48.50
32217;DHT22;67098;51.140;4.088;2023-04-24T14:50:19;24.10;48.10
32217;DHT22;67098;51.140;4.088;2023-04-24T14:52:45;24.30;47.60
32217;DHT22;67098;51.140;4.088;2023-04-24T14:55:12;23.20;48.40
32217;DHT22;67098;51.140;4.088;2023-04-24T14:57:37;23.60;48.60
32217;DHT22;67098;51.140;4.088;2023-04-24T15:00:04;23.60;48.30
32217;DHT22;67098;51.140;4.088;2023-04-24T15:02:35;23.00;48.80
32217;DHT22;67098;51.140;4.088;2023-04-24T15:05:05;22.40;48.90
32217;DHT22;67098;51.140;4.088;2023-04-24T15:07:32;21.00;50.90
32217;DHT22;67098;51.140;4.088;2023-04-24T15:09:58;20.60;52.60
32217;DHT22;67098;51.140;4.088;2023-04-24T15:12:23;20.80;52.30
32217;DHT22;67098;51.140;4.088;2023-04-24T15:14:50;21.20;52.30
32217;DHT22;67098;51.140;4.088;2023-04-24T15:17:15;21.40;52.00
32217;DHT22;67098;51.140;4.088;2023-04-24T15:19:41;21.60;51.60
32217;DHT22;67098;51.140;4.088;2023-04-24T15:22:07;21.30;51.30
32217;DHT22;67098;51.140;4.088;2023-04-24T15:24:33;21.30;51.50
32217;DHT22;67098;51.140;4.088;2023-04-24T15:26:59;21.10;51.50
32217;DHT22;67098;51.140;4.088;2023-04-24T15:29:27;21.00;51.70
32217;DHT22;67098;51.140;4.088;2023-04-24T15:31:53;20.90;52.00
32217;DHT22;67098;51.140;4.088;2023-04-24T15:34:19;20.30;51.80
32217;DHT22;67098;51.140;4.088;2023-04-24T15:36:45;20.20;52.50
32217;DHT22;67098;51.140;4.088;2023-04-24T15:39:10;20.30;52.70
32217;DHT22;67098;51.140;4.088;2023-04-24T15:41:36;20.40;52.90
32217;DHT22;67098;51.140;4.088;2023-04-24T15:44:02;20.10;53.80